Impacts METAR Board
IDs:

KBOS - Boston/Logan Intl, MA, US

Updated at: 2300 UTC 01 Mar 2021
Potential Impact None Slight Moderate High
Time 01/11Z 01/12Z 01/13Z 01/14Z 01/15Z 01/16Z 01/17Z 01/18Z 01/19Z 01/20Z 01/21Z 01/22Z 01/23Z
Temp37 38 39 41 40 41 41 41 43 44 44 42 38
Dewpt37 38 39 41 40 40 40 39 40 38 36 29 23
Altim29.70 29.64 29.60 29.57 29.54 29.50 29.50 29.48 29.44 29.40 29.43 29.49 29.54
VIS4 1.75 0.75 1.25 6 10 10 4 8 10 10 10 10
CIG5 3 3 4 4 5 9 42 50 90 110 130 --
CoverOVCOVCOVCOVCOVCOVCOVCOVCOVCOVCBKNBKNSCT
FltCatIFRLIFRLIFRLIFRLIFRIFRIFRMVFRVFRVFRVFRVFRVFR
WX-RA BR-RA BR-RA BR-RA BRBR-----RA BR----------
WDir80400280270290270290260270280290280
WSpd6 3 0 3 6 7 5 9 9 14 15 17 18
WGst-- -- -- -- -- -- -- -- 16 20 21 34 33
Raw hourly METARs
KBOS 011054Z 08006KT 4SM -RA BR OVC005 03/03 A2970 RMK AO2 SLP056 P0003 T00280028
KBOS 011154Z 04003KT 1 3/4SM -RA BR OVC003 03/03 A2964 RMK AO2 PRESFR SLP038 P0003 60011 70015 T00330033 10033 20028 58049
KBOS 011254Z 00000KT 3/4SM R04R/3500V5500FT -RA BR OVC003 04/04 A2960 RMK AO2 SFC VIS 1 1/4 SLP024 P0002 T00390039
KBOS 011354Z 28003KT 1 1/4SM -RA BR OVC004 05/05 A2957 RMK AO2 SFC VIS 3 SLP011 P0001 T00500050
KBOS 011503Z 27006KT 6SM BR OVC004 04/04 A2954 RMK AO2 T00440044
KBOS 011554Z 29007KT 10SM OVC005 05/04 A2950 RMK AO2 SLP990 T00500044
KBOS 011654Z 27005KT 10SM OVC009 05/04 A2950 RMK AO2 SLP988 T00500044
KBOS 011754Z 29009KT 4SM -RA BR SCT009 OVC042 05/04 A2948 RMK AO2 RAB27 SLP980 P0000 60003 T00500039 10050 20033 56022
KBOS 011854Z 26009G16KT 8SM FEW009 OVC050 06/04 A2944 RMK AO2 RAE54 SLP970 P0002 T00610044
KBOS 011954Z 27014G20KT 10SM FEW009 SCT055 BKN090 OVC200 07/03 A2940 RMK AO2 SLP956 T00670033
KBOS 012054Z 28015G21KT 10SM FEW045 BKN110 BKN200 07/02 A2943 RMK AO2 PK WND 27026/2044 SLP966 60002 T00670022 55015
KBOS 012154Z 29017G34KT 10SM SCT035 BKN130 BKN200 06/M02 A2949 RMK AO2 PK WND 28034/2151 SLP985 T00561017
KBOS 012254Z 28018G33KT 10SM FEW035 SCT130 03/M05 A2954 RMK AO2 PK WND 28034/2233 SLP001 T00331050



Page loaded:  23:27 UTC  |   03:27 PM Pacific  |   04:27 PM Mountain  |   05:27 PM Central  |   06:27 PM Eastern

 

ADVISORIES

FORECASTS

FORECASTS

OBSERVATIONS

USER TOOLS

ABOUT US